Time;durP1;ratioP1;P1;durP2;ratioP2;P2;SDS_P1;SDS_P2;PMS_P1;PMS_P2;Temp;Humidity;BMP_temperature;BMP_pressure;BME280_temperature;BME280_humidity;BME280_pressure;Samples;Min_cycle;Max_cycle;Signal;HPM_P1;HPM_P2
2022/11/14 00:00:14;;;;;;;32.83;14.52;;;;;;;0.48;100.00;98891.50;4219227;28;20036;-73
2022/11/14 00:02:15;;;;;;;31.75;14.18;;;;;;;0.48;100.00;98899.69;4218529;28;20050;-72
2022/11/14 00:04:16;;;;;;;28.65;14.15;;;;;;;0.43;100.00;98883.47;4219301;28;20491;-72
2022/11/14 00:06:16;;;;;;;27.40;13.93;;;;;;;0.45;100.00;98891.31;4215649;28;20055;-72
2022/11/14 00:08:19;;;;;;;35.15;14.85;;;;;;;0.44;100.00;98887.00;4220150;28;20160;-72
2022/11/14 00:10:20;;;;;;;33.58;14.73;;;;;;;0.42;100.00;98886.50;4220507;28;20451;-72
2022/11/14 00:12:20;;;;;;;27.40;13.77;;;;;;;0.44;100.00;98892.44;4220439;28;20051;-72
2022/11/14 00:14:21;;;;;;;29.48;15.77;;;;;;;0.42;100.00;98883.78;4219274;28;20061;-72
2022/11/14 00:16:21;;;;;;;34.15;14.50;;;;;;;0.42;100.00;98881.03;4220141;28;20055;-72
2022/11/14 00:18:22;;;;;;;42.13;16.92;;;;;;;0.40;100.00;98885.97;4221188;28;20059;-72
2022/11/14 00:20:22;;;;;;;65.78;17.40;;;;;;;0.40;100.00;98881.31;4220325;28;20367;-72
2022/11/14 00:22:23;;;;;;;32.22;16.58;;;;;;;0.40;100.00;98875.88;4219981;28;20306;-72
2022/11/14 00:24:23;;;;;;;83.63;19.73;;;;;;;0.40;100.00;98873.16;4220518;28;20471;-72
2022/11/14 00:26:23;;;;;;;30.27;16.08;;;;;;;0.38;100.00;98875.38;4220475;28;20407;-72
2022/11/14 00:28:24;;;;;;;33.65;16.08;;;;;;;0.39;100.00;98873.47;4220093;28;20096;-72
2022/11/14 00:30:26;;;;;;;38.03;16.27;;;;;;;0.37;100.00;98867.53;4220172;28;20519;-72
2022/11/14 00:32:26;;;;;;;32.20;16.13;;;;;;;0.39;100.00;98865.28;4220535;28;20063;-72
2022/11/14 00:34:26;;;;;;;50.70;15.80;;;;;;;0.41;100.00;98869.31;4218661;28;20039;-72
2022/11/14 00:36:26;;;;;;;36.67;15.75;;;;;;;0.41;100.00;98869.31;4220436;28;20480;-72
2022/11/14 00:38:27;;;;;;;49.33;16.05;;;;;;;0.41;100.00;98873.97;4221507;27;20159;-72
2022/11/14 00:40:27;;;;;;;112.32;19.77;;;;;;;0.40;100.00;98878.59;4219260;28;20356;-72
2022/11/14 00:42:27;;;;;;;27.92;13.65;;;;;;;0.38;100.00;98866.41;4219799;28;20031;-72
2022/11/14 00:44:28;;;;;;;23.63;12.85;;;;;;;0.38;100.00;98869.94;4218785;28;20050;-72
2022/11/14 00:46:28;;;;;;;41.33;16.23;;;;;;;0.36;100.00;98866.72;4219781;28;20549;-72
2022/11/14 00:48:28;;;;;;;27.55;14.82;;;;;;;0.36;100.00;98860.47;4219962;28;20088;-72
2022/11/14 00:50:29;;;;;;;30.13;16.25;;;;;;;0.38;100.00;98859.03;4219988;28;20067;-72
2022/11/14 00:52:29;;;;;;;25.27;14.50;;;;;;;0.40;100.00;98848.66;4218206;28;20135;-72
2022/11/14 00:54:29;;;;;;;25.92;13.25;;;;;;;0.44;100.00;98851.59;4219455;28;20104;-72
2022/11/14 00:56:30;;;;;;;28.02;13.43;;;;;;;0.43;100.00;98856.25;4219784;28;20055;-72
2022/11/14 00:58:30;;;;;;;44.08;16.20;;;;;;;0.38;100.00;98850.88;4219805;28;20044;-72
2022/11/14 01:00:30;;;;;;;22.65;12.90;;;;;;;0.43;100.00;98850.00;4219333;28;20257;-72
2022/11/14 01:02:31;;;;;;;27.83;12.57;;;;;;;0.40;100.00;98845.94;4219140;28;20499;-73
2022/11/14 01:04:31;;;;;;;20.25;12.50;;;;;;;0.37;100.00;98846.56;4220071;27;20047;-73
2022/11/14 01:06:32;;;;;;;23.75;12.27;;;;;;;0.34;100.00;98839.00;4220106;28;20057;-72
2022/11/14 01:08:32;;;;;;;27.25;13.35;;;;;;;0.36;100.00;98838.69;4219845;28;20044;-72
2022/11/14 01:10:33;;;;;;;24.33;12.65;;;;;;;0.35;100.00;98831.63;4219199;28;20100;-72
2022/11/14 01:12:33;;;;;;;25.25;13.50;;;;;;;0.35;100.00;98837.88;4218863;28;20040;-72
2022/11/14 01:14:34;;;;;;;23.10;12.90;;;;;;;0.34;100.00;98833.56;4219728;28;20078;-72
2022/11/14 01:16:34;;;;;;;24.77;12.65;;;;;;;0.36;100.00;98827.81;4219537;28;20078;-73
2022/11/14 01:18:36;;;;;;;33.92;14.82;;;;;;;0.40;100.00;98815.19;4219612;28;20039;-72
2022/11/14 01:20:39;;;;;;;31.08;15.23;;;;;;;0.41;100.00;98819.53;4219418;28;20122;-72
2022/11/14 01:22:40;;;;;;;24.38;13.70;;;;;;;0.44;100.00;98818.94;4218717;28;20063;-72
2022/11/14 01:24:41;;;;;;;25.95;13.10;;;;;;;0.44;100.00;98821.66;4219251;27;20063;-72
2022/11/14 01:26:41;;;;;;;27.80;13.90;;;;;;;0.39;100.00;98814.38;4219203;28;20537;-72
2022/11/14 01:28:41;;;;;;;30.50;13.70;;;;;;;0.41;100.00;98816.78;4217964;28;20053;-72
2022/11/14 01:30:42;;;;;;;21.70;12.23;;;;;;;0.37;100.00;98822.06;4219249;28;20490;-72
2022/11/14 01:32:42;;;;;;;21.67;12.05;;;;;;;0.34;100.00;98825.38;4218890;28;20036;-72
2022/11/14 01:34:42;;;;;;;21.00;12.70;;;;;;;0.32;100.00;98826.78;4219151;28;20479;-72
2022/11/14 01:36:42;;;;;;;55.00;15.93;;;;;;;0.27;100.00;98816.81;4219286;28;20469;-72
2022/11/14 01:38:43;;;;;;;29.40;14.73;;;;;;;0.26;100.00;98818.72;4220464;27;20402;-72
2022/11/14 01:40:44;;;;;;;73.53;14.82;;;;;;;0.24;100.00;98812.75;4219352;28;20039;-72
2022/11/14 01:43:17;;;;;;;24.58;12.48;;;;;;;0.23;100.00;98802.19;4218326;28;20039;-72
2022/11/14 01:45:45;;;;;;;39.07;12.77;;;;;;;0.16;100.00;98793.63;4162973;28;20039;-72
2022/11/14 01:47:46;;;;;;;29.17;12.85;;;;;;;0.14;100.00;98796.63;4218717;28;20040;-72
2022/11/14 01:49:53;;;;;;;22.85;12.35;;;;;;;0.12;100.00;98804.31;4219214;27;20046;-72
2022/11/14 01:52:07;;;;;;;31.75;13.20;;;;;;;0.14;100.00;98799.34;4218989;28;20055;-72
2022/11/14 01:54:13;;;;;;;77.72;17.02;;;;;;;0.11;100.00;98788.28;4217706;27;20039;-72
2022/11/14 01:56:18;;;;;;;27.63;13.15;;;;;;;0.05;100.00;98782.13;4218389;28;20027;-72
2022/11/14 01:58:19;;;;;;;26.42;13.15;;;;;;;0.05;100.00;98773.97;4219557;27;20419;-72
2022/11/14 02:00:20;;;;;;;31.43;13.93;;;;;;;0.04;100.00;98775.06;4218944;28;20125;-72
2022/11/14 02:02:23;;;;;;;24.10;12.52;;;;;;;0.07;100.00;98777.19;4218543;28;20074;-72
2022/11/14 02:04:31;;;;;;;52.33;13.07;;;;;;;0.11;100.00;98769.25;4218951;28;20363;-72
2022/11/14 02:06:33;;;;;;;26.27;12.57;;;;;;;0.17;100.00;98773.47;4219143;28;20047;-72
2022/11/14 02:08:35;;;;;;;23.65;13.25;;;;;;;0.25;100.00;98764.63;4218566;28;20036;-72
2022/11/14 02:10:35;;;;;;;23.42;12.70;;;;;;;0.33;100.00;98773.94;4218140;28;20422;-72
2022/11/14 02:12:36;;;;;;;21.38;12.73;;;;;;;0.22;100.00;98770.63;4217560;28;20052;-72
2022/11/14 02:14:37;;;;;;;69.28;15.88;;;;;;;0.14;100.00;98766.72;4218860;28;20036;-72
2022/11/14 02:16:40;;;;;;;30.88;12.70;;;;;;;0.08;100.00;98764.38;4218650;28;20089;-72
2022/11/14 02:18:40;;;;;;;57.28;13.43;;;;;;;0.04;100.00;98757.94;4218628;28;20426;-72
2022/11/14 02:20:42;;;;;;;20.92;12.30;;;;;;;0.06;100.00;98761.16;4218657;28;20032;-72
2022/11/14 02:22:42;;;;;;;34.85;12.07;;;;;;;0.04;100.00;98757.94;4217086;28;20044;-72
2022/11/14 02:24:43;;;;;;;23.27;12.80;;;;;;;0.08;100.00;98767.91;4218347;28;20158;-72
2022/11/14 02:26:43;;;;;;;23.80;11.80;;;;;;;0.14;100.00;98757.75;4218642;28;20438;-72
2022/11/14 02:28:43;;;;;;;27.23;12.43;;;;;;;0.13;100.00;98756.13;4218695;28;20075;-72
2022/11/14 02:30:44;;;;;;;32.63;12.77;;;;;;;0.12;100.00;98757.25;4218522;28;20036;-72
2022/11/14 02:32:44;;;;;;;23.65;13.05;;;;;;;0.18;100.00;98754.13;4216578;28;20044;-72
2022/11/14 02:34:44;;;;;;;24.83;12.20;;;;;;;0.31;100.00;98754.41;4218759;28;20316;-72
2022/11/14 02:36:45;;;;;;;19.05;11.52;;;;;;;0.31;100.00;98752.50;4218427;28;20295;-72
2022/11/14 02:38:45;;;;;;;17.52;10.73;;;;;;;0.21;100.00;98758.16;4218740;28;20529;-72
2022/11/14 02:40:45;;;;;;;34.58;12.18;;;;;;;0.13;100.00;98751.50;4220214;28;20123;-72
2022/11/14 02:42:46;;;;;;;20.85;11.15;;;;;;;0.06;100.00;98750.28;4221505;28;20035;-72
2022/11/14 02:44:46;;;;;;;76.63;14.32;;;;;;;-0.07;100.00;98755.44;4222053;28;20040;-72
2022/11/14 02:46:46;;;;;;;21.90;11.50;;;;;;;-0.14;100.00;98760.47;4221593;28;20131;-72
2022/11/14 02:48:47;;;;;;;54.35;14.23;;;;;;;-0.18;100.00;98759.44;4222067;28;20086;-72
2022/11/14 02:50:48;;;;;;;20.00;11.48;;;;;;;-0.20;100.00;98742.63;4221806;28;20039;-72
2022/11/14 02:52:48;;;;;;;46.08;12.38;;;;;;;-0.23;100.00;98747.88;4221194;28;20047;-72
2022/11/14 02:54:48;;;;;;;30.67;11.93;;;;;;;-0.35;100.00;98738.25;4221585;28;20052;-72
2022/11/14 02:56:49;;;;;;;28.83;11.63;;;;;;;-0.37;100.00;98745.13;4221710;28;20046;-72
2022/11/14 02:58:49;;;;;;;23.98;10.38;;;;;;;-0.41;100.00;98755.81;4222711;27;20039;-72
2022/11/14 03:00:49;;;;;;;28.80;11.68;;;;;;;-0.44;100.00;98748.22;4221893;28;20440;-72
2022/11/14 03:02:52;;;;;;;18.40;11.15;;;;;;;-0.45;100.00;98741.19;4221021;28;20094;-72
2022/11/14 03:04:52;;;;;;;21.23;11.10;;;;;;;-0.43;100.00;98740.88;4221489;28;20035;-72
2022/11/14 03:06:53;;;;;;;18.85;10.45;;;;;;;-0.46;100.00;98746.91;4221548;28;20040;-72
2022/11/14 03:08:53;;;;;;;46.22;12.80;;;;;;;-0.44;100.00;98747.41;4220795;28;20114;-72
2022/11/14 03:10:54;;;;;;;25.98;10.80;;;;;;;-0.46;100.00;98736.03;4221528;28;20103;-72
2022/11/14 03:12:55;;;;;;;72.95;15.27;;;;;;;-0.49;100.00;98729.31;4220036;28;20043;-72
2022/11/14 03:14:55;;;;;;;42.50;11.05;;;;;;;-0.51;100.00;98725.25;4221079;28;20056;-72
2022/11/14 03:16:55;;;;;;;24.92;10.52;;;;;;;-0.54;100.00;98726.66;4221175;28;20042;-72
2022/11/14 03:18:56;;;;;;;20.00;11.45;;;;;;;-0.59;100.00;98724.81;4221338;28;20526;-72
2022/11/14 03:20:57;;;;;;;20.40;10.93;;;;;;;-0.57;100.00;98725.34;4220291;28;20063;-72
2022/11/14 03:22:57;;;;;;;21.83;9.95;;;;;;;-0.59;100.00;98713.16;4220598;28;20070;-72
2022/11/14 03:24:57;;;;;;;25.45;11.18;;;;;;;-0.52;100.00;98721.72;4220909;28;20039;-72
2022/11/14 03:26:57;;;;;;;22.17;10.57;;;;;;;-0.48;100.00;98713.78;4221354;28;20042;-72
2022/11/14 03:28:58;;;;;;;20.10;10.43;;;;;;;-0.39;100.00;98718.25;4221162;28;20699;-72
2022/11/14 03:30:58;;;;;;;43.50;12.50;;;;;;;-0.41;100.00;98715.03;4220980;28;20272;-72
2022/11/14 03:32:58;;;;;;;22.30;10.52;;;;;;;-0.38;100.00;98719.84;4219524;28;20047;-72
2022/11/14 03:34:59;;;;;;;31.88;11.18;;;;;;;-0.38;100.00;98716.31;4217263;28;20634;-72
2022/11/14 03:36:59;;;;;;;29.00;10.70;;;;;;;-0.31;100.00;98712.09;4219318;28;20035;-72
2022/11/14 03:39:00;;;;;;;20.92;11.02;;;;;;;-0.27;100.00;98717.72;4218457;27;20060;-72
2022/11/14 03:41:00;;;;;;;23.25;10.48;;;;;;;-0.28;100.00;98714.22;4218610;28;20042;-72
2022/11/14 03:43:01;;;;;;;16.45;9.23;;;;;;;-0.28;100.00;98713.41;4217957;28;20467;-72
2022/11/14 03:45:01;;;;;;;36.35;10.43;;;;;;;-0.33;100.00;98714.31;4220985;28;20043;-72
2022/11/14 03:47:02;;;;;;;27.30;10.35;;;;;;;-0.35;100.00;98711.06;4221258;28;20126;-72
2022/11/14 03:49:02;;;;;;;73.53;13.20;;;;;;;-0.37;100.00;98704.34;4222007;28;20051;-72
2022/11/14 03:51:02;;;;;;;35.97;12.70;;;;;;;-0.35;100.00;98707.56;4221108;28;20047;-72
2022/11/14 03:53:03;;;;;;;24.30;11.85;;;;;;;-0.32;100.00;98706.97;4220029;28;20184;-72
2022/11/14 03:55:04;;;;;;;27.98;10.77;;;;;;;-0.30;100.00;98713.72;4222104;28;20078;-72
2022/11/14 03:57:04;;;;;;;25.50;10.38;;;;;;;-0.35;100.00;98699.41;4221770;28;20544;-72
2022/11/14 03:59:04;;;;;;;27.08;11.63;;;;;;;-0.29;100.00;98706.34;4222552;27;20039;-72
2022/11/14 04:01:05;;;;;;;24.60;11.70;;;;;;;-0.33;100.00;98702.66;4221549;28;20079;-72
2022/11/14 04:03:05;;;;;;;32.92;11.85;;;;;;;-0.30;100.00;98702.84;4222012;27;20101;-72
2022/11/14 04:05:06;;;;;;;34.95;12.52;;;;;;;-0.36;100.00;98700.50;4221701;28;20518;-72
2022/11/14 04:07:06;;;;;;;23.20;11.55;;;;;;;-0.34;100.00;98699.09;4221259;28;20044;-72
2022/11/14 04:09:07;;;;;;;21.23;11.15;;;;;;;-0.30;100.00;98693.88;4221983;28;20112;-72
2022/11/14 04:11:07;;;;;;;28.73;12.10;;;;;;;-0.30;100.00;98696.59;4221575;28;20040;-72
2022/11/14 04:13:08;;;;;;;37.38;12.63;;;;;;;-0.33;100.00;98686.34;4220533;28;20061;-72
2022/11/14 04:15:09;;;;;;;61.63;14.20;;;;;;;-0.33;100.00;98684.41;4221789;28;20655;-72
2022/11/14 04:17:10;;;;;;;22.77;12.45;;;;;;;-0.29;100.00;98679.16;4221666;28;20051;-72
2022/11/14 04:19:10;;;;;;;26.08;13.63;;;;;;;-0.25;100.00;98682.06;4221739;28;20047;-72
2022/11/14 04:21:10;;;;;;;27.15;12.45;;;;;;;-0.25;100.00;98665.75;4220569;28;20180;-72
2022/11/14 04:23:11;;;;;;;27.67;11.50;;;;;;;-0.24;100.00;98675.56;4220832;28;20050;-72
2022/11/14 04:25:11;;;;;;;23.15;11.50;;;;;;;-0.29;100.00;98671.00;4221212;28;20088;-72
2022/11/14 04:27:11;;;;;;;19.77;10.93;;;;;;;-0.23;100.00;98669.00;4221327;28;20083;-72
2022/11/14 04:29:12;;;;;;;18.60;11.63;;;;;;;-0.16;100.00;98669.41;4221514;28;20559;-72
2022/11/14 04:31:12;;;;;;;19.08;11.27;;;;;;;-0.10;100.00;98668.19;4202895;28;20052;-72
2022/11/14 04:33:12;;;;;;;17.77;11.70;;;;;;;-0.03;100.00;98668.59;4220449;28;20105;-72
2022/11/14 04:35:13;;;;;;;25.80;11.82;;;;;;;-0.05;100.00;98663.44;4220632;28;20135;-72
2022/11/14 04:37:13;;;;;;;40.88;13.98;;;;;;;-0.07;100.00;98660.22;4221310;28;20531;-72
2022/11/14 04:39:13;;;;;;;25.38;11.68;;;;;;;-0.05;100.00;98654.47;4221261;28;20031;-72
2022/11/14 04:41:13;;;;;;;29.85;12.30;;;;;;;-0.08;100.00;98660.53;4221258;28;20039;-72
2022/11/14 04:43:14;;;;;;;23.10;11.15;;;;;;;-0.14;100.00;98650.88;4220329;28;20131;-72
2022/11/14 04:45:14;;;;;;;18.27;10.25;;;;;;;-0.16;100.00;98653.91;4202776;28;20238;-72
2022/11/14 04:47:14;;;;;;;26.23;12.35;;;;;;;-0.23;100.00;98652.69;4220511;28;20048;-72
2022/11/14 04:49:15;;;;;;;33.15;11.85;;;;;;;-0.24;100.00;98657.31;4221165;28;20127;-72
2022/11/14 04:51:15;;;;;;;22.15;10.60;;;;;;;-0.27;100.00;98647.03;4220506;28;20072;-72
2022/11/14 04:53:15;;;;;;;36.22;11.52;;;;;;;-0.32;100.00;98644.44;4219930;28;20051;-72
2022/11/14 04:55:16;;;;;;;29.67;11.77;;;;;;;-0.36;100.00;98640.69;4221007;28;20047;-72
2022/11/14 04:57:16;;;;;;;18.17;10.45;;;;;;;-0.43;100.00;98637.56;4220529;28;20043;-72
2022/11/14 04:59:17;;;;;;;34.80;11.60;;;;;;;-0.44;100.00;98625.09;4220710;27;20106;-72
2022/11/14 05:01:17;;;;;;;40.05;11.10;;;;;;;-0.48;100.00;98624.09;4220962;28;20050;-72
2022/11/14 05:03:17;;;;;;;20.80;11.52;;;;;;;-0.50;100.00;98624.38;4219985;28;20320;-72
2022/11/14 05:05:18;;;;;;;57.33;14.57;;;;;;;-0.49;100.00;98627.94;4220272;28;20417;-72
2022/11/14 05:07:18;;;;;;;22.10;11.85;;;;;;;-0.49;100.00;98627.94;4220532;28;20075;-72
2022/11/14 05:09:18;;;;;;;31.00;12.95;;;;;;;-0.58;100.00;98606.88;4220617;28;20126;-72
2022/11/14 05:11:20;;;;;;;18.05;10.57;;;;;;;-0.60;100.00;98609.06;4220486;28;20047;-72
2022/11/14 05:13:20;;;;;;;31.65;12.68;;;;;;;-0.63;100.00;98606.16;4219634;28;20039;-72
2022/11/14 05:15:20;;;;;;;24.73;12.40;;;;;;;-0.67;100.00;98599.72;4220769;28;20573;-72
2022/11/14 05:17:21;;;;;;;51.92;12.82;;;;;;;-0.60;100.00;98617.22;4220373;28;20379;-72
2022/11/14 05:19:21;;;;;;;61.72;14.70;;;;;;;-0.59;100.00;98621.56;4219976;28;20040;-72
2022/11/14 05:21:22;;;;;;;19.65;11.10;;;;;;;-0.59;100.00;98612.59;4220529;28;20425;-72
2022/11/14 05:23:23;;;;;;;19.92;10.82;;;;;;;-0.59;100.00;98624.28;4219225;28;20062;-72
2022/11/14 05:25:23;;;;;;;22.48;13.48;;;;;;;-0.60;100.00;98613.72;4220429;28;20039;-72
2022/11/14 05:27:23;;;;;;;27.52;13.68;;;;;;;-0.60;100.00;98611.00;4220667;28;20032;-72
2022/11/14 05:29:24;;;;;;;19.67;11.07;;;;;;;-0.59;100.00;98610.69;4220423;28;20529;-72
2022/11/14 05:31:24;;;;;;;22.40;12.45;;;;;;;-0.57;100.00;98611.22;4220280;28;20488;-72
2022/11/14 05:33:24;;;;;;;37.28;12.50;;;;;;;-0.55;100.00;98610.09;4219201;28;20395;-72
2022/11/14 05:35:25;;;;;;;22.23;11.70;;;;;;;-0.57;100.00;98611.22;4220091;28;20059;-72
2022/11/14 05:37:25;;;;;;;17.73;10.43;;;;;;;-0.61;100.00;98607.47;4220514;27;20147;-73
2022/11/14 05:39:25;;;;;;;26.88;13.02;;;;;;;-0.58;100.00;98611.50;4219872;28;20052;-72
2022/11/14 05:41:25;;;;;;;61.20;15.60;;;;;;;-0.57;100.00;98610.41;4220553;28;20535;-72
2022/11/14 05:43:28;;;;;;;19.92;10.50;;;;;;;-0.61;100.00;98603.94;4218923;28;20040;-72
2022/11/14 05:45:29;;;;;;;22.70;12.38;;;;;;;-0.63;100.00;98606.97;4219729;28;20036;-72
2022/11/14 05:47:30;;;;;;;21.17;10.77;;;;;;;-0.63;100.00;98614.31;4219998;28;20368;-72
2022/11/14 05:49:30;;;;;;;17.20;9.70;;;;;;;-0.71;100.00;98596.00;4219156;28;20091;-72
2022/11/14 05:51:30;;;;;;;30.42;12.25;;;;;;;-0.71;100.00;98591.38;4219660;28;20050;-72
2022/11/14 05:53:32;;;;;;;22.77;10.20;;;;;;;-0.78;100.00;98593.69;4218915;28;20051;-72
2022/11/14 05:55:32;;;;;;;24.88;10.82;;;;;;;-0.81;100.00;98599.72;4157466;27;20483;-72
2022/11/14 05:57:34;;;;;;;18.42;10.35;;;;;;;-0.80;100.00;98606.75;4207124;28;20072;-72
2022/11/14 05:59:34;;;;;;;19.77;10.80;;;;;;;-0.70;100.00;98603.03;4218500;28;20054;-72
2022/11/14 06:01:35;;;;;;;46.20;13.13;;;;;;;-0.70;100.00;98595.69;4217853;28;20126;-72
2022/11/14 06:03:41;;;;;;;40.30;11.90;;;;;;;-0.69;100.00;98593.78;4219105;28;20047;-72
2022/11/14 06:05:41;;;;;;;35.25;11.43;;;;;;;-0.65;100.00;98586.66;4218608;28;20044;-72
2022/11/14 06:07:42;;;;;;;36.92;10.63;;;;;;;-0.65;100.00;98589.38;4218787;28;20046;-72
2022/11/14 06:09:42;;;;;;;31.88;10.57;;;;;;;-0.70;100.00;98598.41;4219679;28;20039;-72
2022/11/14 06:11:42;;;;;;;16.83;10.00;;;;;;;-0.78;100.00;98601.81;4218601;28;20044;-72
2022/11/14 06:13:43;;;;;;;21.98;9.70;;;;;;;-0.78;100.00;98596.41;4218773;28;20051;-72
2022/11/14 06:15:43;;;;;;;48.80;11.25;;;;;;;-0.83;100.00;98598.38;4218430;28;20483;-72
2022/11/14 06:17:44;;;;;;;28.38;10.45;;;;;;;-0.89;100.00;98603.94;4219123;28;20044;-72
2022/11/14 06:19:44;;;;;;;53.45;11.88;;;;;;;-0.94;100.00;98604.03;4219360;28;20047;-72
2022/11/14 06:21:45;;;;;;;19.95;10.20;;;;;;;-0.93;100.00;98591.25;4219015;28;20365;-72
2022/11/14 06:23:46;;;;;;;20.95;10.27;;;;;;;-0.93;100.00;98600.19;4218856;28;20550;-72
2022/11/14 06:25:46;;;;;;;24.42;10.27;;;;;;;-0.90;100.00;98604.25;4219155;28;20070;-72
2022/11/14 06:27:46;;;;;;;20.33;10.10;;;;;;;-0.83;100.00;98593.75;4219396;28;20039;-72
2022/11/14 06:29:47;;;;;;;16.75;9.55;;;;;;;-0.80;100.00;98590.47;4218058;28;20047;-72
2022/11/14 06:31:47;;;;;;;17.80;9.57;;;;;;;-0.84;100.00;98600.31;4218006;28;20827;-72
2022/11/14 06:33:47;;;;;;;45.65;12.02;;;;;;;-0.88;100.00;98599.31;4218214;28;20177;-72
2022/11/14 06:35:48;;;;;;;29.88;10.23;;;;;;;-0.83;100.00;98601.09;4218881;28;20043;-72
2022/11/14 06:37:48;;;;;;;24.85;10.73;;;;;;;-0.78;100.00;98601.81;4220660;28;20280;-72
2022/11/14 06:39:48;;;;;;;29.73;10.95;;;;;;;-0.77;100.00;98594.47;4219242;28;20086;-72
2022/11/14 06:41:49;;;;;;;19.17;9.95;;;;;;;-0.70;100.00;98603.84;4219612;28;20162;-72
2022/11/14 06:43:51;;;;;;;20.17;10.68;;;;;;;-0.66;100.00;98606.78;4218959;28;20043;-72
2022/11/14 06:45:54;;;;;;;37.10;11.10;;;;;;;-0.73;100.00;98612.63;4219584;28;20566;-72
2022/11/14 06:47:58;;;;;;;28.08;11.43;;;;;;;-0.78;100.00;98607.25;4219011;28;20108;-72
2022/11/14 06:49:59;;;;;;;25.45;10.95;;;;;;;-0.80;100.00;98620.34;4218573;28;20368;-72
2022/11/14 06:51:59;;;;;;;58.15;11.75;;;;;;;-0.84;100.00;98616.59;4218064;28;20034;-72
2022/11/14 06:53:59;;;;;;;30.58;11.45;;;;;;;-0.85;100.00;98623.16;4218896;28;20043;-72
2022/11/14 06:56:06;;;;;;;21.45;10.65;;;;;;;-0.78;100.00;98618.13;4218938;28;20032;-72
2022/11/14 06:58:06;;;;;;;41.28;10.88;;;;;;;-0.76;100.00;98624.06;4218301;28;20067;-72
2022/11/14 07:00:07;;;;;;;26.17;9.35;;;;;;;-0.83;100.00;98631.00;4218983;28;20027;-72
2022/11/14 07:02:11;;;;;;;22.33;9.85;;;;;;;-0.91;100.00;98632.47;4219314;28;20035;-72
2022/11/14 07:04:12;;;;;;;25.55;10.90;;;;;;;-0.98;100.00;98624.75;4218214;28;20028;-72
2022/11/14 07:06:18;;;;;;;36.20;10.13;;;;;;;-0.98;100.00;98615.78;4217812;28;20092;-72
2022/11/14 07:08:18;;;;;;;72.70;12.75;;;;;;;-1.02;100.00;98633.78;4219116;28;20525;-72
2022/11/14 07:10:18;;;;;;;135.50;17.08;;;;;;;-1.14;100.00;98618.78;4219034;28;20095;-72
2022/11/14 07:12:18;;;;;;;23.50;11.20;;;;;;;-1.14;100.00;98628.84;4218865;28;20134;-72
2022/11/14 07:14:19;;;;;;;21.33;9.90;;;;;;;-1.12;100.00;98634.75;4218432;28;20051;-72
2022/11/14 07:16:22;;;;;;;33.20;11.77;;;;;;;-1.13;100.00;98627.72;4219527;28;20020;-72
2022/11/14 07:18:23;;;;;;;22.38;10.38;;;;;;;-1.02;100.00;98623.72;4217285;28;20626;-72
2022/11/14 07:20:23;;;;;;;60.85;13.68;;;;;;;-1.04;100.00;98623.22;4219133;28;20142;-72
2022/11/14 07:22:24;;;;;;;35.55;12.23;;;;;;;-0.95;100.00;98628.78;4217990;28;20707;-72
2022/11/14 07:24:24;;;;;;;25.00;11.63;;;;;;;-0.86;100.00;98622.34;4219629;28;20043;-72
2022/11/14 07:26:24;;;;;;;26.25;11.48;;;;;;;-0.81;100.00;98624.16;4218467;28;20043;-72
2022/11/14 07:28:24;;;;;;;31.00;11.48;;;;;;;-0.78;100.00;98626.28;4223233;27;20109;-72
2022/11/14 07:30:25;;;;;;;22.08;10.93;;;;;;;-0.79;100.00;98615.72;4223907;27;20518;-72
2022/11/14 07:32:25;;;;;;;17.50;10.10;;;;;;;-0.82;100.00;98619.03;4222432;27;20035;-72
2022/11/14 07:34:25;;;;;;;17.50;10.70;;;;;;;-0.86;100.00;98625.06;4222120;27;20427;-72
2022/11/14 07:36:26;;;;;;;97.50;16.30;;;;;;;-0.89;100.00;98635.72;4222066;28;20118;-72
2022/11/14 07:38:26;;;;;;;51.75;13.60;;;;;;;-0.93;100.00;98629.28;4221860;28;20043;-72
2022/11/14 07:40:26;;;;;;;19.77;10.20;;;;;;;-0.90;100.00;98636.84;4219657;28;20048;-72
2022/11/14 07:42:28;;;;;;;25.02;11.32;;;;;;;-0.86;100.00;98622.34;4218201;28;20039;-72
2022/11/14 07:44:29;;;;;;;46.00;14.00;;;;;;;-0.86;100.00;98627.78;4216756;28;20044;-72
2022/11/14 07:46:29;;;;;;;18.98;10.10;;;;;;;-0.85;100.00;98617.72;4218023;28;20302;-72
2022/11/14 07:48:30;;;;;;;34.08;11.70;;;;;;;-0.87;100.00;98625.38;4220429;28;20061;-72
2022/11/14 07:50:30;;;;;;;104.78;16.35;;;;;;;-0.93;100.00;98624.63;4220748;28;20038;-72
2022/11/14 07:52:30;;;;;;;28.65;10.63;;;;;;;-0.91;100.00;98613.47;4201037;28;20052;-72
2022/11/14 07:54:30;;;;;;;29.40;11.18;;;;;;;-0.93;100.00;98612.97;4212843;28;20036;-72
2022/11/14 07:56:31;;;;;;;71.93;14.23;;;;;;;-0.98;100.00;98615.78;4217349;28;20380;-72
2022/11/14 07:58:34;;;;;;;114.72;15.63;;;;;;;-1.01;100.00;98622.63;4218499;28;20138;-73
2022/11/14 08:00:35;;;;;;;29.88;11.82;;;;;;;-0.97;100.00;98612.78;4217448;28;20032;-72
2022/11/14 08:02:35;;;;;;;44.78;12.35;;;;;;;-0.96;100.00;98619.81;4218666;28;20055;-72
2022/11/14 08:04:35;;;;;;;104.20;14.60;;;;;;;-1.01;100.00;98627.25;4218656;28;20187;-72
2022/11/14 08:06:36;;;;;;;61.88;13.00;;;;;;;-1.00;100.00;98612.56;4219357;28;20051;-72
2022/11/14 08:08:36;;;;;;;48.53;12.27;;;;;;;-0.94;100.00;98608.66;4218458;28;20070;-72
2022/11/14 08:10:37;;;;;;;42.78;11.77;;;;;;;-0.93;100.00;98615.69;4220489;28;20043;-72
2022/11/14 08:12:38;;;;;;;90.50;14.55;;;;;;;-0.99;100.00;98625.84;4219472;28;20110;-72
2022/11/14 08:14:38;;;;;;;33.17;11.68;;;;;;;-0.94;100.00;98627.66;4220350;28;20493;-72
2022/11/14 08:16:38;;;;;;;16.70;10.00;;;;;;;-0.94;100.00;98630.38;4220367;28;20404;-72
2022/11/14 08:18:39;;;;;;;43.55;12.40;;;;;;;-0.93;100.00;98627.34;4220286;28;20047;-72
2022/11/14 08:20:39;;;;;;;16.67;10.27;;;;;;;-0.91;100.00;98617.03;4219185;28;20051;-72
2022/11/14 08:22:39;;;;;;;18.95;10.73;;;;;;;-0.85;100.00;98615.00;4219428;28;20043;-72
2022/11/14 08:24:40;;;;;;;68.72;14.80;;;;;;;-0.87;100.00;98600.91;4218848;28;20311;-72
2022/11/14 08:26:40;;;;;;;95.90;15.10;;;;;;;-0.83;100.00;98599.19;4218832;28;20043;-72
2022/11/14 08:28:41;;;;;;;30.38;11.90;;;;;;;-0.80;100.00;98589.66;4219691;28;20433;-73
2022/11/14 08:30:41;;;;;;;23.33;11.00;;;;;;;-0.71;100.00;98596.81;4219790;28;20062;-72
2022/11/14 08:32:41;;;;;;;59.53;12.45;;;;;;;-0.70;100.00;98600.31;4219764;28;20044;-72
2022/11/14 08:34:42;;;;;;;22.25;11.82;;;;;;;-0.64;100.00;98602.66;4220486;28;20104;-72
2022/11/14 08:36:42;;;;;;;20.35;11.05;;;;;;;-0.61;100.00;98598.50;4220170;28;20743;-72
2022/11/14 08:38:43;;;;;;;33.35;11.45;;;;;;;-0.59;100.00;98599.81;4219880;28;20035;-72
2022/11/14 08:40:43;;;;;;;26.13;11.73;;;;;;;-0.54;100.00;98596.19;4219836;28;20364;-72
2022/11/14 08:42:43;;;;;;;19.73;10.38;;;;;;;-0.49;100.00;98601.56;4218212;28;20444;-72
2022/11/14 08:44:44;;;;;;;23.10;12.30;;;;;;;-0.44;100.00;98593.28;4219936;28;20295;-72
2022/11/14 08:46:44;;;;;;;20.08;11.27;;;;;;;-0.39;100.00;98589.66;4220344;28;20071;-72
2022/11/14 08:48:45;;;;;;;25.38;11.93;;;;;;;-0.32;100.00;98582.72;4219819;28;20044;-73
2022/11/14 08:50:45;;;;;;;21.17;11.45;;;;;;;-0.23;100.00;98595.59;4219951;28;20048;-72
2022/11/14 08:52:50;;;;;;;38.42;12.73;;;;;;;-0.15;100.00;98592.16;4219022;28;20478;-72
2022/11/14 08:54:50;;;;;;;30.70;11.40;;;;;;;-0.14;100.00;98591.03;4219709;28;20075;-72
2022/11/14 08:56:50;;;;;;;34.92;11.90;;;;;;;-0.17;100.00;98584.28;4218006;28;20486;-72
2022/11/14 08:58:51;;;;;;;49.10;13.07;;;;;;;-0.12;100.00;98583.38;4219408;28;20059;-72
2022/11/14 09:00:51;;;;;;;33.05;13.02;;;;;;;-0.11;100.00;98585.78;4219877;28;20050;-72
2022/11/14 09:02:51;;;;;;;46.88;11.27;;;;;;;-0.10;100.00;98586.59;4217925;28;20483;-72
2022/11/14 09:04:52;;;;;;;25.95;10.43;;;;;;;-0.14;100.00;98594.56;4220264;27;20036;-72
2022/11/14 09:06:52;;;;;;;46.13;11.68;;;;;;;-0.21;100.00;98590.66;4219656;28;20097;-73
2022/11/14 09:08:52;;;;;;;18.50;9.90;;;;;;;-0.20;100.00;98586.81;4220165;28;20531;-72
2022/11/14 09:10:53;;;;;;;20.08;10.48;;;;;;;-0.17;100.00;98592.44;4219886;28;20085;-72